Piedmont, Wyoming
Current Conditions -  °F | °C
As of 8:55 AM on Friday 28 Nov 2014 (Local Time) from KFBR Reporting Station
Clear Clear  
Wind Chill: 39°   Ceiling: Unl
Heat Index: 45°   Visibility: 10mi
Dew Point: 17°   Wind: 12mph
Humidity: 32%   Direction: 250°WSW
Pressure: 30.07"   Gusts: NA
Location:  41.2998°N, 110.328°W
Report Text: KFBR 281555Z AUTO 25010KT 10SM CLR 07/M09 A3007 RMK AO2 T00701086
Loading
Personal Weather Stations






























Interactive Weather Map New forecast layout! Learn more

10-Day Weather Forecast

Advertisements
Track Severe Weather on mobile